Time;durP1;ratioP1;P1;durP2;ratioP2;P2;SDS_P1;SDS_P2;PMS_P1;PMS_P2;Temp;Humidity;BMP_temperature;BMP_pressure;BME280_temperature;BME280_humidity;BME280_pressure;Samples;Min_cycle;Max_cycle;Signal;HPM_P1;HPM_P2
2021/09/29 00:00:30;;;;;;;11.93;7.28;;;;;;;15.85;70.80;98955.00;5114736;28;20035;-94
2021/09/29 00:02:56;;;;;;;13.93;7.78;;;;;;;15.71;70.84;98937.72;5115859;28;20039;-93
2021/09/29 00:05:22;;;;;;;13.15;7.68;;;;;;;15.67;71.00;98928.03;5115988;28;20036;-94
2021/09/29 00:07:48;;;;;;;13.40;6.75;;;;;;;15.73;70.96;98949.25;5116319;28;20039;-95
2021/09/29 00:10:15;;;;;;;17.77;7.78;;;;;;;15.74;71.38;98955.47;5102407;28;20488;-93
2021/09/29 00:12:42;;;;;;;16.95;7.97;;;;;;;15.72;71.58;98965.41;5117227;28;20056;-94
2021/09/29 00:15:11;;;;;;;13.32;7.72;;;;;;;15.69;71.97;98963.69;5116450;28;20040;-92
2021/09/29 00:17:37;;;;;;;;;;;;;;;15.65;71.58;98964.78;5116480;28;20061;-94
2021/09/29 00:20:04;;;;;;;14.02;7.25;;;;;;;15.57;71.80;98964.22;5116297;28;19923;-93
2021/09/29 00:22:30;;;;;;;14.55;7.22;;;;;;;15.46;72.20;98955.81;5115394;28;20130;-94
2021/09/29 00:24:55;;;;;;;14.60;7.03;;;;;;;15.40;72.14;98962.31;5115689;28;20097;-94
2021/09/29 00:27:21;;;;;;;14.07;7.55;;;;;;;15.44;72.13;98968.41;5115859;27;20086;-93
2021/09/29 00:29:51;;;;;;;14.77;7.85;;;;;;;15.45;72.95;98988.91;5115696;28;20127;-94
2021/09/29 00:32:18;;;;;;;15.23;8.18;;;;;;;15.39;74.50;98980.19;5115139;28;20078;-94
2021/09/29 00:34:44;;;;;;;18.45;8.55;;;;;;;15.37;74.83;98983.88;5117163;28;20040;-94
2021/09/29 00:37:10;;;;;;;18.38;9.18;;;;;;;15.41;74.86;98985.47;5116411;28;20058;-94
2021/09/29 00:39:36;;;;;;;16.42;8.82;;;;;;;15.32;74.82;98967.13;5115986;28;20044;-93
2021/09/29 00:42:03;;;;;;;18.42;8.90;;;;;;;15.29;74.95;98972.59;5115887;28;20046;-93
2021/09/29 00:44:29;;;;;;;18.58;9.57;;;;;;;15.20;75.55;98963.16;5116037;28;20051;-94
2021/09/29 00:46:57;;;;;;;18.42;9.73;;;;;;;15.30;75.72;98972.56;5115098;28;20039;-94
2021/09/29 00:49:23;;;;;;;18.30;9.85;;;;;;;15.30;75.88;98975.22;5115351;28;20705;-93
2021/09/29 00:51:49;;;;;;;19.95;9.55;;;;;;;15.12;76.49;98960.81;5115404;28;20071;-92
2021/09/29 00:54:16;;;;;;;18.90;9.88;;;;;;;15.19;76.43;98975.69;5115806;27;20395;-92
2021/09/29 00:56:42;;;;;;;18.15;9.38;;;;;;;15.04;77.02;98962.09;5114563;28;20047;-94
2021/09/29 00:59:08;;;;;;;22.17;10.52;;;;;;;15.04;76.91;98964.75;5114457;28;20431;-92
2021/09/29 01:01:34;;;;;;;23.85;10.45;;;;;;;15.10;77.29;98973.41;5113231;28;20505;-92
2021/09/29 01:04:02;;;;;;;22.40;10.63;;;;;;;15.13;77.72;98973.25;5114698;28;20097;-92
2021/09/29 01:06:35;;;;;;;23.15;10.80;;;;;;;15.14;77.99;98969.66;5114042;28;20119;-92
2021/09/29 01:09:08;;;;;;;23.17;11.15;;;;;;;15.19;77.91;98973.00;5113902;28;20079;-93
2021/09/29 01:11:43;;;;;;;22.55;10.07;;;;;;;15.12;77.90;98962.63;5113581;28;20130;-92
2021/09/29 01:14:15;;;;;;;23.05;11.70;;;;;;;15.16;78.23;98972.28;5117576;27;20037;-93
2021/09/29 01:16:44;;;;;;;22.05;10.57;;;;;;;15.18;78.35;98963.25;5120874;27;20059;-94
2021/09/29 01:19:16;;;;;;;;;;;;;;;15.18;78.36;98963.25;5114687;28;20032;-93
2021/09/29 01:21:48;;;;;;;20.75;10.10;;;;;;;15.16;78.02;98961.56;5114302;28;20387;-93
2021/09/29 01:24:20;;;;;;;20.92;9.98;;;;;;;15.13;78.01;98961.69;5116108;27;20040;-94
2021/09/29 01:26:50;;;;;;;19.55;9.90;;;;;;;15.12;77.85;98951.94;5114228;28;20035;-93
2021/09/29 01:29:21;;;;;;;22.02;9.77;;;;;;;15.17;77.71;98964.16;5114382;28;20047;-93
2021/09/29 01:31:49;;;;;;;20.55;10.40;;;;;;;15.08;78.22;98953.00;5114227;28;20496;-94
2021/09/29 01:34:15;;;;;;;20.85;9.98;;;;;;;15.12;77.79;98962.63;5114934;28;20430;-94
2021/09/29 01:36:43;;;;;;;19.65;10.43;;;;;;;14.98;79.16;98953.38;5111510;28;20044;-94
2021/09/29 01:39:10;;;;;;;19.50;9.90;;;;;;;14.95;78.63;98947.28;5109489;28;20108;-94
2021/09/29 01:41:39;;;;;;;20.60;9.85;;;;;;;15.01;78.44;98968.44;5114594;28;20459;-94
2021/09/29 01:44:07;;;;;;;22.52;10.10;;;;;;;14.95;79.19;98961.53;5112026;28;20098;-94
2021/09/29 01:46:33;;;;;;;20.08;9.88;;;;;;;14.84;79.40;98942.38;5114391;28;20040;-94
2021/09/29 01:49:06;;;;;;;21.40;9.98;;;;;;;14.73;79.45;98934.78;5114585;28;20032;-94
2021/09/29 01:51:36;;;;;;;22.10;10.13;;;;;;;14.83;80.02;98951.31;5114664;28;20040;-92
2021/09/29 01:54:03;;;;;;;22.85;10.60;;;;;;;14.78;80.51;98958.69;5114521;28;20047;-94
2021/09/29 01:56:30;;;;;;;22.70;11.02;;;;;;;14.67;80.84;98943.06;5114229;28;20040;-93
2021/09/29 01:58:57;;;;;;;21.50;10.07;;;;;;;14.67;80.81;98942.19;5110373;28;20028;-93
2021/09/29 02:01:25;;;;;;;22.75;11.30;;;;;;;14.67;81.02;98948.41;5114110;28;20043;-93
2021/09/29 02:03:51;;;;;;;22.30;11.00;;;;;;;14.69;80.89;98948.34;5114471;28;20458;-93
2021/09/29 02:06:17;;;;;;;21.90;10.18;;;;;;;14.68;80.76;98946.59;5114244;28;20126;-93
2021/09/29 02:08:43;;;;;;;20.20;10.43;;;;;;;14.56;80.41;98924.75;5114743;28;20463;-94
2021/09/29 02:11:09;;;;;;;19.27;9.93;;;;;;;14.60;80.31;98935.34;5114339;28;20131;-94
2021/09/29 02:13:35;;;;;;;22.80;10.50;;;;;;;14.61;80.64;98929.06;5114355;28;20032;-94
2021/09/29 02:16:01;;;;;;;21.45;11.20;;;;;;;14.57;81.93;98945.25;5113945;28;20077;-94
2021/09/29 02:18:29;;;;;;;26.17;11.90;;;;;;;14.53;82.04;98923.97;5114073;28;20497;-94
2021/09/29 02:20:54;;;;;;;22.30;11.15;;;;;;;14.55;82.54;98946.22;5111586;28;20127;-94
2021/09/29 02:23:21;;;;;;;21.02;9.82;;;;;;;14.49;82.54;98936.63;5114290;28;20097;-94
2021/09/29 02:25:47;;;;;;;21.05;10.68;;;;;;;14.45;83.30;98935.00;5118099;28;20092;-94
2021/09/29 02:28:13;;;;;;;22.08;11.05;;;;;;;14.41;83.22;98936.06;5118079;28;20458;-94
2021/09/29 02:30:39;;;;;;;20.58;10.40;;;;;;;14.36;82.69;98920.19;5117609;28;20043;-94
2021/09/29 02:33:05;;;;;;;24.23;11.52;;;;;;;14.43;83.26;98939.53;5117708;28;20036;-94
2021/09/29 02:35:32;;;;;;;21.17;11.27;;;;;;;14.36;83.79;98936.25;5117962;28;20439;-93
2021/09/29 02:37:58;;;;;;;22.70;10.90;;;;;;;14.31;82.83;98927.53;5117607;28;20100;-94
2021/09/29 02:40:24;;;;;;;21.90;10.70;;;;;;;14.25;83.45;98924.22;5117713;28;20039;-93
2021/09/29 02:42:50;;;;;;;23.50;11.50;;;;;;;14.23;83.64;98932.31;5117703;27;20031;-93
2021/09/29 02:45:16;;;;;;;20.73;10.82;;;;;;;14.20;83.65;98929.75;5116896;28;20040;-93
2021/09/29 02:47:42;;;;;;;22.58;10.65;;;;;;;14.15;83.48;98916.56;5117559;28;20050;-93
2021/09/29 02:50:09;;;;;;;19.10;10.30;;;;;;;14.22;83.75;98929.69;5114889;28;20104;-93
2021/09/29 02:52:36;;;;;;;20.60;10.00;;;;;;;14.20;83.59;98942.25;5117526;28;20097;-93
2021/09/29 02:55:03;;;;;;;22.40;10.55;;;;;;;14.22;83.58;98953.75;5117265;28;20035;-94
2021/09/29 02:57:29;;;;;;;21.42;10.18;;;;;;;14.11;83.81;98940.81;5117202;28;20039;-92
2021/09/29 02:59:55;;;;;;;16.80;9.13;;;;;;;14.12;83.19;98938.06;5117372;28;20039;-93
2021/09/29 03:02:21;;;;;;;18.05;10.30;;;;;;;14.15;83.61;98951.31;5116568;28;20043;-94
2021/09/29 03:04:47;;;;;;;19.65;9.68;;;;;;;14.06;83.19;98924.06;5117576;28;20039;-93
2021/09/29 03:07:13;;;;;;;19.05;9.40;;;;;;;14.03;82.29;98943.78;5117106;28;20046;-94
2021/09/29 03:09:40;;;;;;;19.40;8.27;;;;;;;14.08;81.96;98947.16;5117327;28;20043;-93
2021/09/29 03:12:07;;;;;;;19.55;10.05;;;;;;;14.07;81.57;98934.69;5116962;28;20067;-92
2021/09/29 03:14:33;;;;;;;18.02;8.82;;;;;;;14.15;81.51;98954.00;5117082;28;20039;-93
2021/09/29 03:16:58;;;;;;;17.98;8.55;;;;;;;14.14;81.16;98949.59;5116573;28;20040;-94
2021/09/29 03:19:24;;;;;;;17.35;8.43;;;;;;;14.05;81.11;98935.69;5117030;28;20035;-92
2021/09/29 03:21:50;;;;;;;15.50;8.10;;;;;;;14.05;81.80;98936.59;5117020;28;20047;-93
2021/09/29 03:24:19;;;;;;;16.10;7.95;;;;;;;14.02;81.84;98944.72;5117023;28;20043;-93
2021/09/29 03:26:48;;;;;;;19.60;8.68;;;;;;;13.92;82.96;98927.25;5116952;28;20039;-94
2021/09/29 03:29:13;;;;;;;19.33;8.77;;;;;;;13.92;83.12;98940.63;5116957;28;20505;-93
2021/09/29 03:31:39;;;;;;;18.80;9.10;;;;;;;13.82;82.71;98917.88;5116548;28;20178;-93
2021/09/29 03:34:05;;;;;;;16.10;8.35;;;;;;;13.75;82.38;98911.88;5116465;28;20043;-94
2021/09/29 03:36:32;;;;;;;16.27;8.23;;;;;;;13.72;82.42;98922.69;5115962;28;20036;-94
2021/09/29 03:39:00;;;;;;;15.85;8.00;;;;;;;13.70;82.33;98914.72;5114412;28;20093;-94
2021/09/29 03:41:26;;;;;;;16.37;8.70;;;;;;;13.64;82.51;98920.31;5116684;28;20071;-93
2021/09/29 03:43:54;;;;;;;18.83;9.45;;;;;;;13.56;83.09;98915.22;5116797;28;20276;-93
2021/09/29 03:46:20;;;;;;;18.05;8.95;;;;;;;13.82;82.71;98944.59;5116253;28;20396;-94
2021/09/29 03:48:46;;;;;;;17.48;9.02;;;;;;;13.60;83.07;98917.78;5116546;28;20396;-94
2021/09/29 03:51:12;;;;;;;16.50;8.63;;;;;;;13.67;82.79;98932.69;5116438;28;20043;-94
2021/09/29 03:53:38;;;;;;;16.65;8.50;;;;;;;13.62;82.78;98922.16;5116243;28;20443;-93
2021/09/29 03:56:04;;;;;;;18.05;8.63;;;;;;;13.60;83.54;98921.34;5116467;28;20047;-93
2021/09/29 03:58:30;;;;;;;16.90;8.88;;;;;;;13.62;83.43;98927.50;5116248;28;20035;-93
2021/09/29 04:00:57;;;;;;;16.67;8.85;;;;;;;13.63;83.20;98923.91;5115527;28;20443;-95
2021/09/29 04:03:23;;;;;;;18.60;9.50;;;;;;;13.67;83.32;98932.69;5117081;28;20040;-93
2021/09/29 04:05:49;;;;;;;19.10;9.65;;;;;;;13.56;83.48;98917.03;5117348;28;20097;-94
2021/09/29 04:08:16;;;;;;;16.95;8.85;;;;;;;13.54;83.73;98918.91;5118033;28;20071;-94
2021/09/29 04:10:43;;;;;;;18.23;9.73;;;;;;;13.44;83.88;98906.78;5117311;28;20035;-94
2021/09/29 04:13:10;;;;;;;19.48;10.23;;;;;;;13.51;84.53;98930.56;5115651;28;20104;-93
2021/09/29 04:15:35;;;;;;;17.70;8.98;;;;;;;13.46;83.95;98927.19;5115017;28;20044;-94
2021/09/29 04:18:03;;;;;;;17.95;9.32;;;;;;;13.46;84.21;98931.66;5116283;28;20032;-94
2021/09/29 04:20:29;;;;;;;18.40;9.20;;;;;;;13.43;83.84;98921.97;5115898;28;20032;-93
2021/09/29 04:22:55;;;;;;;19.52;10.00;;;;;;;13.40;83.73;98921.19;5116309;28;20058;-93
2021/09/29 04:25:21;;;;;;;19.38;9.18;;;;;;;13.35;83.80;98902.66;5116649;28;20043;-95
2021/09/29 04:27:47;;;;;;;19.90;9.13;;;;;;;13.34;83.66;98907.13;5116612;28;20055;-93
2021/09/29 04:30:14;;;;;;;17.02;8.63;;;;;;;13.34;83.94;98923.16;5115731;28;20074;-93
2021/09/29 04:32:41;;;;;;;16.90;8.23;;;;;;;13.32;84.14;98914.31;5115623;27;20097;-93
2021/09/29 04:35:09;;;;;;;20.23;8.82;;;;;;;13.27;84.70;98929.63;5116320;28;20040;-94
2021/09/29 04:37:34;;;;;;;16.58;8.10;;;;;;;13.31;83.86;98936.59;5115912;28;20047;-93
2021/09/29 04:40:00;;;;;;;18.75;8.95;;;;;;;13.21;84.87;98924.50;5116814;28;20110;-93
2021/09/29 04:42:27;;;;;;;17.27;8.65;;;;;;;13.15;84.73;98914.03;5116001;28;20454;-92
2021/09/29 04:44:53;;;;;;;18.52;9.02;;;;;;;13.20;85.13;98930.75;5115499;28;20040;-94
2021/09/29 04:47:18;;;;;;;20.13;9.50;;;;;;;13.18;85.38;98932.59;5114525;28;20489;-94
2021/09/29 04:49:44;;;;;;;19.90;8.82;;;;;;;13.18;84.62;98940.59;5115672;28;20048;-93
2021/09/29 04:52:12;;;;;;;14.88;8.27;;;;;;;13.14;84.74;98936.28;5116014;28;20039;-95
2021/09/29 04:54:41;;;;;;;18.30;9.13;;;;;;;13.26;85.19;98962.59;5115728;28;20043;-92
2021/09/29 04:57:07;;;;;;;19.95;8.90;;;;;;;13.15;84.45;98949.59;5115857;28;20039;-94
2021/09/29 04:59:32;;;;;;;18.42;9.85;;;;;;;13.22;85.02;98968.09;5116828;28;20059;-92
2021/09/29 05:01:58;;;;;;;19.33;8.65;;;;;;;13.21;84.51;98953.00;5113648;28;20039;-92
2021/09/29 05:04:25;;;;;;;21.73;9.70;;;;;;;13.33;84.58;98966.81;5114807;28;20043;-93
2021/09/29 05:06:54;;;;;;;18.83;9.25;;;;;;;13.26;84.59;98954.56;5112412;28;20473;-92
2021/09/29 05:09:21;;;;;;;15.68;8.65;;;;;;;13.22;84.75;98950.25;5110607;28;20067;-95
2021/09/29 05:11:50;;;;;;;18.77;9.50;;;;;;;13.22;84.78;98952.94;5111135;27;20036;-94
2021/09/29 05:14:16;;;;;;;16.52;8.48;;;;;;;13.28;85.08;98957.19;5116602;28;20052;-93
2021/09/29 05:16:42;;;;;;;17.40;8.52;;;;;;;13.24;84.94;98950.22;5116550;28;20037;-95
2021/09/29 05:19:08;;;;;;;20.13;9.80;;;;;;;13.27;84.54;98956.34;5117452;28;20031;-93
2021/09/29 05:21:34;;;;;;;21.05;9.13;;;;;;;13.30;84.75;98958.91;5114329;28;20587;-94
2021/09/29 05:24:01;;;;;;;19.38;9.35;;;;;;;13.33;85.04;98973.94;5115096;28;20052;-92
2021/09/29 05:26:28;;;;;;;18.55;9.25;;;;;;;13.37;85.15;98988.94;5114390;28;20496;-92
2021/09/29 05:28:56;;;;;;;16.70;8.70;;;;;;;13.33;85.45;98974.81;5115088;28;20868;-93
2021/09/29 05:31:22;;;;;;;23.70;9.32;;;;;;;13.31;85.34;98960.66;5113980;28;20036;-94
2021/09/29 05:33:48;;;;;;;20.83;10.55;;;;;;;13.42;85.85;98972.75;5114575;28;20039;-92
2021/09/29 05:36:14;;;;;;;18.77;8.85;;;;;;;13.43;85.44;98969.19;5116286;28;20122;-94
2021/09/29 05:38:40;;;;;;;17.13;9.00;;;;;;;13.50;84.87;98976.03;5116474;28;20048;-94
2021/09/29 05:41:06;;;;;;;19.23;9.63;;;;;;;13.56;84.99;98976.69;5115093;28;20118;-93
2021/09/29 05:43:33;;;;;;;18.90;9.88;;;;;;;13.69;84.38;98971.78;5114021;28;20537;-92
2021/09/29 05:45:59;;;;;;;15.68;9.50;;;;;;;13.69;84.18;98978.94;5113367;28;20092;-94
2021/09/29 05:48:26;;;;;;;22.83;10.93;;;;;;;13.68;84.16;98970.00;5114315;28;20489;-94
2021/09/29 05:50:51;;;;;;;21.08;10.13;;;;;;;13.74;83.93;98972.47;5114369;28;20047;-93
2021/09/29 05:53:17;;;;;;;22.55;10.45;;;;;;;13.79;83.69;98979.44;5114054;28;20047;-93
2021/09/29 05:55:43;;;;;;;19.65;10.45;;;;;;;13.88;83.80;98982.66;5112656;28;20389;-92
2021/09/29 05:58:09;;;;;;;23.15;11.38;;;;;;;13.90;83.46;98972.78;5113568;28;20032;-91
2021/09/29 06:00:36;;;;;;;23.38;11.20;;;;;;;14.08;83.69;98981.03;5115048;28;20061;-91
2021/09/29 06:03:02;;;;;;;22.23;11.02;;;;;;;14.10;83.04;98988.06;5117313;28;20046;-92
2021/09/29 06:05:30;;;;;;;24.13;10.65;;;;;;;14.13;81.42;98966.56;5117293;28;20047;-92
2021/09/29 06:07:56;;;;;;;20.73;9.98;;;;;;;14.32;80.85;98984.59;5118013;28;20043;-92
2021/09/29 06:10:22;;;;;;;21.45;10.20;;;;;;;14.38;80.63;99008.44;5117026;28;20097;-92
2021/09/29 06:12:47;;;;;;;20.88;9.82;;;;;;;14.37;81.17;98982.59;5117182;28;20122;-93
2021/09/29 06:15:20;;;;;;;21.50;10.80;;;;;;;14.56;80.44;98985.44;5116316;27;20035;-92
2021/09/29 06:20:52;;;;;;;23.92;10.75;;;;;;;14.87;79.22;99001.13;5130757;27;20513;-91
2021/09/29 06:23:19;;;;;;;21.17;10.40;;;;;;;15.00;78.83;98999.69;5122520;28;20050;-91
2021/09/29 06:25:46;;;;;;;21.25;10.73;;;;;;;15.16;78.51;98999.06;5120988;28;20052;-92
2021/09/29 06:28:13;;;;;;;21.35;10.43;;;;;;;15.39;76.91;99006.97;5123492;28;20111;-93
2021/09/29 06:30:39;;;;;;;21.70;10.63;;;;;;;15.46;76.29;99004.03;5127173;28;20043;-93
2021/09/29 06:33:04;;;;;;;19.58;10.60;;;;;;;15.60;75.23;99007.88;5127402;28;20044;-92
2021/09/29 06:35:30;;;;;;;20.52;10.30;;;;;;;15.85;74.84;99005.94;5123743;28;20040;-93
2021/09/29 06:37:58;;;;;;;22.33;11.02;;;;;;;16.06;74.14;99014.84;5124276;28;20035;-93
2021/09/29 06:40:24;;;;;;;23.85;10.40;;;;;;;16.23;73.27;99010.44;5127284;28;20042;-93
2021/09/29 06:42:51;;;;;;;27.40;11.27;;;;;;;16.41;72.48;98999.78;5115802;28;20035;-94
2021/09/29 06:45:17;;;;;;;22.98;12.45;;;;;;;16.54;71.66;99011.66;5123446;28;20047;-94
2021/09/29 06:47:45;;;;;;;22.45;10.88;;;;;;;16.46;72.62;99016.56;5122866;28;20043;-94
2021/09/29 06:50:13;;;;;;;19.83;10.63;;;;;;;16.62;72.19;99022.91;5126715;28;20073;-93
2021/09/29 06:52:39;;;;;;;19.95;9.70;;;;;;;16.83;71.82;99028.25;5125855;28;20047;-93
2021/09/29 06:55:08;;;;;;;17.77;9.38;;;;;;;16.81;71.38;99012.19;5122018;28;20088;-94
2021/09/29 06:57:34;;;;;;;19.52;9.93;;;;;;;16.96;70.15;99013.28;5127356;28;20054;-93
2021/09/29 07:00:00;;;;;;;18.52;9.00;;;;;;;17.33;68.14;99030.25;5116396;28;20042;-93
2021/09/29 07:02:26;;;;;;;16.08;8.50;;;;;;;17.36;67.61;99013.09;5126265;28;20031;-93
2021/09/29 07:04:52;;;;;;;17.40;9.10;;;;;;;17.44;67.14;99019.81;5122614;28;20043;-92
2021/09/29 07:07:18;;;;;;;15.00;8.30;;;;;;;17.42;66.40;99019.03;5123471;28;20044;-94
2021/09/29 07:09:44;;;;;;;14.43;8.55;;;;;;;17.59;67.49;99041.50;5129450;28;20492;-95
2021/09/29 07:12:11;;;;;;;15.57;8.85;;;;;;;17.50;66.00;99015.06;5122115;28;20038;-93
2021/09/29 07:14:37;;;;;;;17.38;8.68;;;;;;;17.77;65.01;99016.31;5129283;28;20101;-93
2021/09/29 07:17:03;;;;;;;15.20;8.00;;;;;;;17.73;63.84;99028.19;5118973;28;20052;-92
2021/09/29 07:19:29;;;;;;;14.80;7.70;;;;;;;17.44;63.65;99019.81;5122091;28;20046;-93
2021/09/29 07:21:55;;;;;;;16.25;8.63;;;;;;;17.38;65.18;99036.25;5119647;28;20064;-94
2021/09/29 07:24:21;;;;;;;15.88;8.18;;;;;;;17.32;64.26;99035.69;5124457;28;20069;-93
2021/09/29 07:26:47;;;;;;;16.20;7.95;;;;;;;17.41;64.49;99041.50;5117671;28;20050;-93
2021/09/29 07:29:14;;;;;;;20.23;9.05;;;;;;;17.41;64.57;99041.50;5121111;28;20035;-94
2021/09/29 07:31:41;;;;;;;17.25;8.63;;;;;;;17.45;65.37;99039.50;5105749;28;20057;-92
2021/09/29 07:34:08;;;;;;;19.02;8.88;;;;;;;17.63;65.76;99033.19;5111645;28;20063;-92
2021/09/29 07:36:34;;;;;;;16.10;8.38;;;;;;;17.96;62.50;99047.69;5107267;28;20405;-94
2021/09/29 07:39:00;;;;;;;13.68;7.25;;;;;;;18.26;63.56;99029.88;5116300;28;20036;-93
2021/09/29 07:41:26;;;;;;;16.60;8.02;;;;;;;18.67;62.78;99029.41;5112418;28;20127;-93
2021/09/29 07:43:52;;;;;;;14.93;8.27;;;;;;;18.90;61.14;99024.56;5106310;28;20532;-92
2021/09/29 07:46:19;;;;;;;13.98;7.65;;;;;;;19.08;59.34;99022.63;5109870;28;20063;-93
2021/09/29 07:48:45;;;;;;;11.52;7.22;;;;;;;19.29;57.68;99037.56;5113398;28;20093;-93
2021/09/29 07:51:13;;;;;;;14.50;7.68;;;;;;;19.46;56.59;99033.88;5105918;28;20040;-92
2021/09/29 07:53:40;;;;;;;14.88;6.93;;;;;;;19.59;56.46;99028.63;5110107;28;20048;-91
2021/09/29 07:56:06;;;;;;;12.18;7.35;;;;;;;19.67;55.93;99041.69;5109255;28;20042;-94
2021/09/29 07:58:32;;;;;;;13.70;7.53;;;;;;;19.76;56.60;99035.75;5108819;28;20047;-93
2021/09/29 08:00:58;;;;;;;15.73;8.25;;;;;;;19.55;56.83;99040.56;5109123;28;20388;-92
2021/09/29 08:03:25;;;;;;;15.48;7.05;;;;;;;19.77;56.36;99029.38;5113514;28;20122;-92
2021/09/29 08:05:53;;;;;;;14.43;8.02;;;;;;;19.78;57.09;99023.03;5105301;28;20065;-94
2021/09/29 08:08:19;;;;;;;14.88;8.02;;;;;;;20.20;56.49;99039.38;5109178;28;20032;-93
2021/09/29 08:10:45;;;;;;;16.15;7.70;;;;;;;20.35;54.46;99040.25;5111058;28;20043;-93
2021/09/29 08:13:11;;;;;;;11.35;7.30;;;;;;;20.34;53.40;99044.75;5110114;28;20051;-92
2021/09/29 08:15:37;;;;;;;16.88;8.43;;;;;;;20.15;54.40;99044.19;5108957;28;20119;-92
2021/09/29 08:18:03;;;;;;;15.95;8.50;;;;;;;19.78;56.45;99039.22;5107991;28;20069;-93
2021/09/29 08:20:34;;;;;;;14.10;7.65;;;;;;;19.31;57.52;99056.38;5104992;28;20043;-92
2021/09/29 08:35:27;;;;;;;17.25;9.23;;;;;;;19.48;58.90;99058.94;5133085;27;20367;-92
2021/09/29 09:17:25;;;;;;;18.27;11.00;;;;;;;22.26;52.21;99040.16;5121367;27;20372;-94
2021/09/29 09:19:51;;;;;;;15.98;9.10;;;;;;;22.06;51.93;99033.44;5122715;28;20430;-92
2021/09/29 09:22:18;;;;;;;17.83;10.50;;;;;;;22.05;52.19;99017.28;5119543;27;20043;-92
2021/09/29 09:24:53;;;;;;;24.20;13.60;;;;;;;22.19;51.60;99025.31;5115816;28;20051;-92
2021/09/29 09:27:18;;;;;;;22.13;12.30;;;;;;;21.91;52.57;99029.94;5118204;28;20040;-92
2021/09/29 09:29:46;;;;;;;20.48;11.27;;;;;;;21.64;53.57;99030.03;5125655;27;20043;-93
2021/09/29 09:32:15;;;;;;;22.27;11.70;;;;;;;21.66;54.59;99013.66;5115965;27;20088;-92
2021/09/29 09:34:41;;;;;;;21.33;11.52;;;;;;;21.62;54.20;99029.25;5115549;28;20506;-91
2021/09/29 09:37:08;;;;;;;19.73;11.23;;;;;;;21.81;53.22;99014.44;5115052;28;20070;-94
2021/09/29 09:39:34;;;;;;;21.75;11.68;;;;;;;21.36;55.42;99019.28;5121250;28;20493;-94
2021/09/29 09:42:01;;;;;;;19.52;11.27;;;;;;;21.75;54.13;99010.31;5115673;27;20036;-90
2021/09/29 09:44:30;;;;;;;20.52;11.18;;;;;;;21.85;55.82;98997.03;5113974;28;20389;-94
2021/09/29 09:47:01;;;;;;;24.15;11.80;;;;;;;22.52;54.04;99021.19;5120940;28;20131;-92
2021/09/29 09:49:29;;;;;;;26.17;13.18;;;;;;;22.65;52.96;99015.75;5121808;28;20233;-92
2021/09/29 09:51:59;;;;;;;29.65;15.30;;;;;;;22.59;53.56;99008.91;5116099;27;20097;-93
2021/09/29 09:54:34;;;;;;;26.67;14.40;;;;;;;22.72;52.75;99017.88;5115719;28;20039;-94
2021/09/29 09:57:00;;;;;;;28.73;14.45;;;;;;;23.00;51.89;99013.16;5118746;28;20396;-94
2021/09/29 09:59:30;;;;;;;31.05;14.35;;;;;;;23.23;51.61;99010.59;5113307;27;20123;-93
2021/09/29 10:01:56;;;;;;;23.45;13.38;;;;;;;23.23;51.99;99005.16;5111750;28;20036;-93
2021/09/29 10:04:21;;;;;;;26.75;14.52;;;;;;;23.44;51.49;98994.50;5116103;28;20042;-92
2021/09/29 10:06:49;;;;;;;26.52;13.98;;;;;;;23.63;51.72;99002.13;5116466;28;20063;-94
2021/09/29 10:26:45;;;;;;;29.85;16.08;;;;;;;23.35;52.45;98977.09;5108045;27;20374;-94
2021/09/29 10:29:12;;;;;;;31.48;16.00;;;;;;;23.08;52.81;98974.63;5092724;28;20494;-94
2021/09/29 10:34:48;;;;;;;30.02;16.30;;;;;;;23.37;52.98;98969.69;5157124;27;20358;-96
2021/09/29 10:43:20;;;;;;;30.65;15.10;;;;;;;23.57;51.55;98971.75;5091882;27;20376;-93
2021/09/29 11:34:12;;;;;;;31.27;14.27;;;;;;;24.44;47.65;98921.44;5104235;27;20372;-94
2021/09/29 12:10:33;;;;;;;12.13;7.35;;;;;;;25.17;36.78;98865.50;5133638;27;20382;-93
2021/09/29 12:13:04;;;;;;;13.45;7.05;;;;;;;25.29;38.42;98874.50;5119203;28;20078;-95
2021/09/29 12:15:30;;;;;;;11.73;7.07;;;;;;;25.30;37.69;98870.78;5104158;28;20097;-93
2021/09/29 12:17:57;;;;;;;11.95;7.40;;;;;;;25.41;38.64;98863.41;5120637;28;20036;-93
2021/09/29 12:23:24;;;;;;;12.35;7.13;;;;;;;25.49;38.27;98857.31;5170763;27;20386;-93
2021/09/29 12:38:06;;;;;;;12.85;7.03;;;;;;;25.65;37.85;98847.78;5179247;27;20352;-93
2021/09/29 12:40:35;;;;;;;11.50;6.80;;;;;;;25.70;37.38;98846.38;5154584;27;20046;-93
2021/09/29 12:43:02;;;;;;;;;;;;;;;25.66;37.21;98854.97;5144846;27;20047;-94
2021/09/29 12:45:33;;;;;;;12.25;7.82;;;;;;;25.58;38.63;98852.91;5153750;27;19954;-94
2021/09/29 12:47:59;;;;;;;12.02;7.68;;;;;;;25.62;38.64;98838.88;5146184;27;20035;-94
2021/09/29 12:50:35;;;;;;;17.67;7.57;;;;;;;25.66;38.21;98834.03;5151485;27;20110;-94
2021/09/29 12:56:15;;;;;;;14.70;8.40;;;;;;;25.80;38.69;98838.25;5134797;27;20418;-96
2021/09/29 12:58:44;;;;;;;13.70;8.18;;;;;;;25.87;38.52;98833.97;5114308;28;20051;-94
2021/09/29 13:01:10;;;;;;;12.23;7.60;;;;;;;25.98;39.14;98843.94;5112837;28;20040;-95
2021/09/29 13:03:36;;;;;;;15.18;7.97;;;;;;;25.99;38.95;98830.19;5118710;28;20097;-93
2021/09/29 13:06:02;;;;;;;12.15;7.28;;;;;;;25.87;36.66;98806.72;5116560;28;20036;-96
2021/09/29 13:08:28;;;;;;;12.98;7.50;;;;;;;26.08;38.11;98849.44;5116387;28;20481;-94
2021/09/29 13:10:54;;;;;;;9.65;6.53;;;;;;;25.98;35.15;98836.66;5115025;28;20040;-94
2021/09/29 13:13:22;;;;;;;10.52;6.57;;;;;;;25.97;36.45;98817.69;5114200;28;20039;-94
2021/09/29 13:15:51;;;;;;;13.90;7.25;;;;;;;25.97;35.74;98831.31;5116804;28;20032;-94
2021/09/29 13:24:27;;;;;;;10.80;6.90;;;;;;;26.05;35.10;98833.38;5155131;27;20378;-96
2021/09/29 13:38:55;;;;;;;12.63;7.45;;;;;;;25.96;37.04;98807.81;5105002;27;20363;-94
2021/09/29 13:41:21;;;;;;;12.60;7.72;;;;;;;26.01;36.98;98811.84;5073055;28;20080;-95
2021/09/29 13:43:46;;;;;;;21.15;8.73;;;;;;;26.13;35.96;98814.44;5074089;28;20041;-95
2021/09/29 13:46:12;;;;;;;15.05;8.15;;;;;;;26.01;35.62;98803.66;5073329;28;20079;-94
2021/09/29 13:48:38;;;;;;;15.68;8.27;;;;;;;26.14;37.84;98819.75;5072338;28;20465;-93
2021/09/29 13:51:04;;;;;;;12.02;7.63;;;;;;;26.11;36.51;98808.28;5071633;28;20040;-93
2021/09/29 13:53:30;;;;;;;14.63;8.07;;;;;;;26.10;35.66;98803.84;5071992;28;20079;-95
2021/09/29 13:56:01;;;;;;;14.30;7.88;;;;;;;26.06;36.70;98805.09;5071970;28;20490;-93
2021/09/29 14:31:17;;;;;;;16.00;8.27;;;;;;;25.94;37.22;98788.88;5153590;27;20386;-93
2021/09/29 14:36:44;;;;;;;16.17;8.70;;;;;;;25.98;36.38;98778.53;5112946;27;20380;-94
2021/09/29 14:39:10;;;;;;;12.30;7.35;;;;;;;26.03;36.27;98788.03;5112979;28;20046;-96
2021/09/29 14:41:36;;;;;;;11.73;7.38;;;;;;;26.02;36.00;98786.31;5113843;28;20131;-94
2021/09/29 14:44:03;;;;;;;17.85;8.18;;;;;;;25.93;36.63;98776.25;5114162;27;20497;-94
2021/09/29 14:46:29;;;;;;;14.10;8.10;;;;;;;25.93;36.32;98770.78;5112294;28;20067;-95
2021/09/29 14:48:55;;;;;;;14.90;7.55;;;;;;;25.95;35.76;98779.69;5113565;28;20040;-94
2021/09/29 14:51:20;;;;;;;11.63;7.57;;;;;;;25.95;35.46;98785.13;5113889;28;20044;-94
2021/09/29 14:53:49;;;;;;;14.18;8.38;;;;;;;25.92;36.04;98779.97;5119606;28;20481;-95
2021/09/29 14:56:17;;;;;;;12.75;7.65;;;;;;;25.85;36.16;98777.91;5129131;27;20511;-95
2021/09/29 14:58:43;;;;;;;12.50;7.68;;;;;;;25.85;36.50;98783.34;5125287;28;20061;-96
2021/09/29 15:01:09;;;;;;;15.20;8.25;;;;;;;25.77;36.74;98762.25;5113975;28;20040;-93
2021/09/29 15:03:36;;;;;;;15.95;7.80;;;;;;;25.98;36.27;98797.63;5113537;28;20366;-95
2021/09/29 15:06:03;;;;;;;14.07;8.23;;;;;;;26.00;36.56;98787.44;5115561;28;20044;-94
2021/09/29 15:08:29;;;;;;;15.45;7.57;;;;;;;25.99;35.24;98788.47;5122667;27;20103;-94
2021/09/29 15:10:56;;;;;;;16.15;7.60;;;;;;;25.82;36.91;98762.69;5114133;28;20047;-93
2021/09/29 16:18:47;;;;;;;13.00;7.60;;;;;;;23.87;43.84;98782.97;5092586;27;20393;-95
2021/09/29 16:36:16;;;;;;;14.65;7.13;;;;;;;22.50;45.47;98811.75;5112526;27;20385;-94
2021/09/29 16:41:45;;;;;;;12.20;7.43;;;;;;;22.35;46.31;98809.22;5123723;27;20390;-95